sensor_id;sensor_type;location;lat;lon;timestamp;P1;durP1;ratioP1;P2;durP2;ratioP2
25091;SDS011;13082;52.374;4.946;2022-12-29T00:01:31;4.73;;;2.90;;
25091;SDS011;13082;52.374;4.946;2022-12-29T00:03:57;3.33;;;2.50;;
25091;SDS011;13082;52.374;4.946;2022-12-29T00:06:23;2.73;;;2.53;;
25091;SDS011;13082;52.374;4.946;2022-12-29T00:08:49;3.70;;;2.60;;
25091;SDS011;13082;52.374;4.946;2022-12-29T00:11:16;3.13;;;2.27;;
25091;SDS011;13082;52.374;4.946;2022-12-29T00:13:46;3.93;;;2.40;;
25091;SDS011;13082;52.374;4.946;2022-12-29T00:16:31;4.37;;;2.60;;
25091;SDS011;13082;52.374;4.946;2022-12-29T00:18:58;3.90;;;2.40;;
25091;SDS011;13082;52.374;4.946;2022-12-29T00:21:24;4.97;;;2.27;;
25091;SDS011;13082;52.374;4.946;2022-12-29T00:24:14;4.50;;;2.20;;
25091;SDS011;13082;52.374;4.946;2022-12-29T00:26:48;4.07;;;2.60;;
25091;SDS011;13082;52.374;4.946;2022-12-29T00:29:36;2.60;;;2.40;;
25091;SDS011;13082;52.374;4.946;2022-12-29T00:32:20;3.00;;;2.07;;
25091;SDS011;13082;52.374;4.946;2022-12-29T00:35:06;2.80;;;2.17;;
25091;SDS011;13082;52.374;4.946;2022-12-29T00:37:37;1.80;;;1.70;;
25091;SDS011;13082;52.374;4.946;2022-12-29T00:40:27;2.03;;;1.93;;
25091;SDS011;13082;52.374;4.946;2022-12-29T00:43:11;4.37;;;1.80;;
25091;SDS011;13082;52.374;4.946;2022-12-29T00:45:55;2.03;;;1.83;;
25091;SDS011;13082;52.374;4.946;2022-12-29T00:48:21;1.57;;;1.47;;
25091;SDS011;13082;52.374;4.946;2022-12-29T00:51:06;2.93;;;1.57;;
25091;SDS011;13082;52.374;4.946;2022-12-29T00:53:33;2.20;;;1.30;;
25091;SDS011;13082;52.374;4.946;2022-12-29T00:55:59;2.07;;;1.67;;
25091;SDS011;13082;52.374;4.946;2022-12-29T00:58:28;1.53;;;1.37;;
25091;SDS011;13082;52.374;4.946;2022-12-29T01:01:00;1.70;;;1.60;;
25091;SDS011;13082;52.374;4.946;2022-12-29T01:03:30;1.40;;;1.30;;
25091;SDS011;13082;52.374;4.946;2022-12-29T01:05:56;2.47;;;1.63;;
25091;SDS011;13082;52.374;4.946;2022-12-29T01:08:21;2.13;;;1.60;;
25091;SDS011;13082;52.374;4.946;2022-12-29T01:10:57;1.37;;;1.27;;
25091;SDS011;13082;52.374;4.946;2022-12-29T01:13:27;2.73;;;1.30;;
25091;SDS011;13082;52.374;4.946;2022-12-29T01:15:52;1.40;;;1.30;;
25091;SDS011;13082;52.374;4.946;2022-12-29T01:18:20;2.40;;;1.43;;
25091;SDS011;13082;52.374;4.946;2022-12-29T01:20:47;2.87;;;1.30;;
25091;SDS011;13082;52.374;4.946;2022-12-29T01:23:13;1.40;;;1.30;;
25091;SDS011;13082;52.374;4.946;2022-12-29T01:25:39;2.00;;;1.33;;
25091;SDS011;13082;52.374;4.946;2022-12-29T01:28:05;1.27;;;1.20;;
25091;SDS011;13082;52.374;4.946;2022-12-29T01:30:33;5.03;;;1.47;;
25091;SDS011;13082;52.374;4.946;2022-12-29T01:33:01;1.60;;;1.33;;
25091;SDS011;13082;52.374;4.946;2022-12-29T01:35:27;1.20;;;1.20;;
25091;SDS011;13082;52.374;4.946;2022-12-29T01:37:53;2.77;;;1.57;;
25091;SDS011;13082;52.374;4.946;2022-12-29T01:40:19;1.10;;;1.10;;
25091;SDS011;13082;52.374;4.946;2022-12-29T01:42:44;1.93;;;1.30;;
25091;SDS011;13082;52.374;4.946;2022-12-29T01:45:14;2.30;;;1.50;;
25091;SDS011;13082;52.374;4.946;2022-12-29T01:47:43;1.73;;;1.43;;
25091;SDS011;13082;52.374;4.946;2022-12-29T01:50:17;1.03;;;1.03;;
25091;SDS011;13082;52.374;4.946;2022-12-29T01:52:49;2.40;;;1.40;;
25091;SDS011;13082;52.374;4.946;2022-12-29T01:55:22;1.30;;;1.20;;
25091;SDS011;13082;52.374;4.946;2022-12-29T01:57:49;1.67;;;1.57;;
25091;SDS011;13082;52.374;4.946;2022-12-29T02:00:18;3.87;;;1.53;;
25091;SDS011;13082;52.374;4.946;2022-12-29T02:02:45;1.40;;;1.30;;
25091;SDS011;13082;52.374;4.946;2022-12-29T02:08:00;2.57;;;0.93;;
25091;SDS011;13082;52.374;4.946;2022-12-29T02:10:27;1.73;;;1.20;;
25091;SDS011;13082;52.374;4.946;2022-12-29T02:12:55;1.30;;;1.20;;
25091;SDS011;13082;52.374;4.946;2022-12-29T02:18:27;1.53;;;1.10;;
25091;SDS011;13082;52.374;4.946;2022-12-29T02:21:13;5.37;;;1.40;;
25091;SDS011;13082;52.374;4.946;2022-12-29T02:38:00;2.47;;;1.30;;
25091;SDS011;13082;52.374;4.946;2022-12-29T02:40:32;3.17;;;1.20;;
25091;SDS011;13082;52.374;4.946;2022-12-29T02:43:26;5.47;;;1.40;;
25091;SDS011;13082;52.374;4.946;2022-12-29T02:49:04;3.93;;;1.30;;
25091;SDS011;13082;52.374;4.946;2022-12-29T02:52:20;7.20;;;1.63;;
25091;SDS011;13082;52.374;4.946;2022-12-29T02:54:33;3.97;;;1.40;;
25091;SDS011;13082;52.374;4.946;2022-12-29T02:57:14;3.13;;;1.20;;
25091;SDS011;13082;52.374;4.946;2022-12-29T02:59:54;2.90;;;1.20;;
25091;SDS011;13082;52.374;4.946;2022-12-29T03:10:48;1.80;;;0.90;;
25091;SDS011;13082;52.374;4.946;2022-12-29T03:16:26;4.17;;;1.03;;
25091;SDS011;13082;52.374;4.946;2022-12-29T03:21:30;3.70;;;1.10;;
25091;SDS011;13082;52.374;4.946;2022-12-29T03:24:29;4.00;;;1.10;;
25091;SDS011;13082;52.374;4.946;2022-12-29T03:27:01;4.50;;;0.97;;
25091;SDS011;13082;52.374;4.946;2022-12-29T03:29:31;1.87;;;1.00;;
25091;SDS011;13082;52.374;4.946;2022-12-29T03:32:00;3.57;;;1.13;;
25091;SDS011;13082;52.374;4.946;2022-12-29T03:34:28;3.67;;;1.43;;
25091;SDS011;13082;52.374;4.946;2022-12-29T03:36:57;2.97;;;1.10;;
25091;SDS011;13082;52.374;4.946;2022-12-29T03:39:28;5.73;;;1.47;;
25091;SDS011;13082;52.374;4.946;2022-12-29T03:41:55;2.67;;;1.20;;
25091;SDS011;13082;52.374;4.946;2022-12-29T03:44:35;3.63;;;1.50;;
25091;SDS011;13082;52.374;4.946;2022-12-29T03:47:02;3.13;;;1.40;;
25091;SDS011;13082;52.374;4.946;2022-12-29T03:49:28;5.37;;;1.40;;
25091;SDS011;13082;52.374;4.946;2022-12-29T03:51:54;3.63;;;1.53;;
25091;SDS011;13082;52.374;4.946;2022-12-29T03:54:19;6.97;;;1.50;;
25091;SDS011;13082;52.374;4.946;2022-12-29T03:56:45;8.27;;;2.10;;
25091;SDS011;13082;52.374;4.946;2022-12-29T03:59:10;8.10;;;2.33;;
25091;SDS011;13082;52.374;4.946;2022-12-29T04:01:36;5.17;;;1.60;;
25091;SDS011;13082;52.374;4.946;2022-12-29T04:04:02;7.07;;;2.20;;
25091;SDS011;13082;52.374;4.946;2022-12-29T04:06:27;5.50;;;1.80;;
25091;SDS011;13082;52.374;4.946;2022-12-29T04:08:53;9.17;;;1.80;;
25091;SDS011;13082;52.374;4.946;2022-12-29T04:11:19;7.70;;;1.97;;
25091;SDS011;13082;52.374;4.946;2022-12-29T04:13:45;8.50;;;1.73;;
25091;SDS011;13082;52.374;4.946;2022-12-29T04:16:11;5.87;;;2.00;;
25091;SDS011;13082;52.374;4.946;2022-12-29T04:18:37;10.30;;;1.60;;
25091;SDS011;13082;52.374;4.946;2022-12-29T04:21:02;9.00;;;1.87;;
25091;SDS011;13082;52.374;4.946;2022-12-29T04:23:38;6.80;;;1.87;;
25091;SDS011;13082;52.374;4.946;2022-12-29T04:26:04;7.73;;;1.43;;
25091;SDS011;13082;52.374;4.946;2022-12-29T04:28:34;7.53;;;1.90;;
25091;SDS011;13082;52.374;4.946;2022-12-29T04:31:01;3.40;;;1.63;;
25091;SDS011;13082;52.374;4.946;2022-12-29T04:33:27;7.43;;;1.63;;
25091;SDS011;13082;52.374;4.946;2022-12-29T04:35:53;5.27;;;1.40;;
25091;SDS011;13082;52.374;4.946;2022-12-29T04:38:19;8.10;;;1.60;;
25091;SDS011;13082;52.374;4.946;2022-12-29T04:40:46;3.53;;;1.40;;
25091;SDS011;13082;52.374;4.946;2022-12-29T04:43:12;5.40;;;1.47;;
25091;SDS011;13082;52.374;4.946;2022-12-29T04:45:39;8.63;;;1.70;;
25091;SDS011;13082;52.374;4.946;2022-12-29T04:48:08;5.50;;;1.80;;
25091;SDS011;13082;52.374;4.946;2022-12-29T04:50:34;6.17;;;1.60;;
25091;SDS011;13082;52.374;4.946;2022-12-29T04:52:59;7.33;;;1.73;;
25091;SDS011;13082;52.374;4.946;2022-12-29T04:55:25;4.63;;;1.50;;
25091;SDS011;13082;52.374;4.946;2022-12-29T04:57:51;7.73;;;2.17;;
25091;SDS011;13082;52.374;4.946;2022-12-29T05:00:16;9.93;;;2.10;;
25091;SDS011;13082;52.374;4.946;2022-12-29T05:02:42;9.33;;;2.47;;
25091;SDS011;13082;52.374;4.946;2022-12-29T05:05:08;8.90;;;1.63;;
25091;SDS011;13082;52.374;4.946;2022-12-29T05:07:34;7.33;;;1.77;;
25091;SDS011;13082;52.374;4.946;2022-12-29T05:09:59;5.50;;;1.87;;
25091;SDS011;13082;52.374;4.946;2022-12-29T05:12:25;8.23;;;2.03;;
25091;SDS011;13082;52.374;4.946;2022-12-29T05:14:53;12.63;;;2.63;;
25091;SDS011;13082;52.374;4.946;2022-12-29T05:17:19;9.20;;;2.10;;
25091;SDS011;13082;52.374;4.946;2022-12-29T05:19:45;8.90;;;2.17;;
25091;SDS011;13082;52.374;4.946;2022-12-29T05:22:10;13.63;;;2.10;;
25091;SDS011;13082;52.374;4.946;2022-12-29T05:24:36;6.93;;;1.97;;
25091;SDS011;13082;52.374;4.946;2022-12-29T05:27:01;11.57;;;2.20;;
25091;SDS011;13082;52.374;4.946;2022-12-29T05:29:27;9.17;;;1.87;;
25091;SDS011;13082;52.374;4.946;2022-12-29T05:31:53;4.87;;;1.77;;
25091;SDS011;13082;52.374;4.946;2022-12-29T05:34:18;7.70;;;2.27;;
25091;SDS011;13082;52.374;4.946;2022-12-29T05:36:44;9.60;;;2.10;;
25091;SDS011;13082;52.374;4.946;2022-12-29T05:39:09;6.90;;;2.23;;
25091;SDS011;13082;52.374;4.946;2022-12-29T05:41:35;6.03;;;1.50;;
25091;SDS011;13082;52.374;4.946;2022-12-29T05:44:01;8.30;;;1.73;;
25091;SDS011;13082;52.374;4.946;2022-12-29T05:46:27;4.63;;;1.90;;
25091;SDS011;13082;52.374;4.946;2022-12-29T05:48:53;10.07;;;2.03;;
25091;SDS011;13082;52.374;4.946;2022-12-29T05:51:18;3.37;;;1.60;;
25091;SDS011;13082;52.374;4.946;2022-12-29T05:53:44;6.10;;;1.70;;
25091;SDS011;13082;52.374;4.946;2022-12-29T05:56:10;2.47;;;1.50;;
25091;SDS011;13082;52.374;4.946;2022-12-29T05:58:35;6.80;;;1.57;;
25091;SDS011;13082;52.374;4.946;2022-12-29T06:01:01;3.80;;;1.70;;
25091;SDS011;13082;52.374;4.946;2022-12-29T06:03:26;5.93;;;1.60;;
25091;SDS011;13082;52.374;4.946;2022-12-29T06:05:52;5.07;;;2.00;;
25091;SDS011;13082;52.374;4.946;2022-12-29T06:08:17;8.43;;;2.37;;
25091;SDS011;13082;52.374;4.946;2022-12-29T06:10:43;8.13;;;1.90;;
25091;SDS011;13082;52.374;4.946;2022-12-29T06:13:09;10.00;;;2.10;;
25091;SDS011;13082;52.374;4.946;2022-12-29T06:15:34;9.37;;;2.53;;
25091;SDS011;13082;52.374;4.946;2022-12-29T06:18:00;8.43;;;1.97;;
25091;SDS011;13082;52.374;4.946;2022-12-29T06:20:26;8.83;;;2.00;;
25091;SDS011;13082;52.374;4.946;2022-12-29T06:22:52;8.27;;;2.17;;
25091;SDS011;13082;52.374;4.946;2022-12-29T06:25:17;9.70;;;2.47;;
25091;SDS011;13082;52.374;4.946;2022-12-29T06:27:43;9.77;;;2.00;;
25091;SDS011;13082;52.374;4.946;2022-12-29T06:30:09;5.80;;;1.63;;
25091;SDS011;13082;52.374;4.946;2022-12-29T06:32:35;10.10;;;2.10;;
25091;SDS011;13082;52.374;4.946;2022-12-29T06:35:01;8.83;;;2.20;;
25091;SDS011;13082;52.374;4.946;2022-12-29T06:37:28;9.57;;;2.80;;
25091;SDS011;13082;52.374;4.946;2022-12-29T06:39:53;11.07;;;2.00;;
25091;SDS011;13082;52.374;4.946;2022-12-29T06:42:19;8.53;;;1.73;;
25091;SDS011;13082;52.374;4.946;2022-12-29T06:44:45;7.40;;;2.37;;
25091;SDS011;13082;52.374;4.946;2022-12-29T06:47:10;8.50;;;2.57;;
25091;SDS011;13082;52.374;4.946;2022-12-29T06:49:36;9.93;;;2.63;;
25091;SDS011;13082;52.374;4.946;2022-12-29T06:52:02;14.10;;;2.33;;
25091;SDS011;13082;52.374;4.946;2022-12-29T06:54:29;8.80;;;3.33;;
25091;SDS011;13082;52.374;4.946;2022-12-29T06:56:58;5.00;;;2.37;;
25091;SDS011;13082;52.374;4.946;2022-12-29T06:59:24;10.23;;;2.57;;
25091;SDS011;13082;52.374;4.946;2022-12-29T07:01:50;14.27;;;2.50;;
25091;SDS011;13082;52.374;4.946;2022-12-29T07:04:15;22.20;;;3.10;;
25091;SDS011;13082;52.374;4.946;2022-12-29T07:06:41;11.50;;;3.67;;
25091;SDS011;13082;52.374;4.946;2022-12-29T07:09:07;12.33;;;3.00;;
25091;SDS011;13082;52.374;4.946;2022-12-29T07:11:34;9.97;;;2.70;;
25091;SDS011;13082;52.374;4.946;2022-12-29T07:14:00;13.73;;;3.63;;
25091;SDS011;13082;52.374;4.946;2022-12-29T07:16:26;9.40;;;2.70;;
25091;SDS011;13082;52.374;4.946;2022-12-29T07:18:54;13.27;;;3.13;;
25091;SDS011;13082;52.374;4.946;2022-12-29T07:21:20;12.57;;;2.60;;
25091;SDS011;13082;52.374;4.946;2022-12-29T07:23:45;10.40;;;2.80;;
25091;SDS011;13082;52.374;4.946;2022-12-29T07:26:11;15.10;;;3.47;;
25091;SDS011;13082;52.374;4.946;2022-12-29T07:28:39;24.27;;;2.97;;
25091;SDS011;13082;52.374;4.946;2022-12-29T07:31:07;12.13;;;3.53;;
25091;SDS011;13082;52.374;4.946;2022-12-29T07:33:42;9.77;;;2.63;;
25091;SDS011;13082;52.374;4.946;2022-12-29T07:36:08;11.80;;;3.17;;
25091;SDS011;13082;52.374;4.946;2022-12-29T07:38:34;15.43;;;2.93;;
25091;SDS011;13082;52.374;4.946;2022-12-29T07:41:00;16.47;;;2.87;;
25091;SDS011;13082;52.374;4.946;2022-12-29T07:43:26;9.97;;;2.43;;
25091;SDS011;13082;52.374;4.946;2022-12-29T07:45:52;15.40;;;2.93;;
25091;SDS011;13082;52.374;4.946;2022-12-29T07:48:17;19.93;;;3.50;;
25091;SDS011;13082;52.374;4.946;2022-12-29T07:50:43;9.67;;;2.60;;
25091;SDS011;13082;52.374;4.946;2022-12-29T07:53:09;15.60;;;2.93;;
25091;SDS011;13082;52.374;4.946;2022-12-29T07:55:34;8.20;;;2.57;;
25091;SDS011;13082;52.374;4.946;2022-12-29T07:58:00;15.30;;;2.63;;
25091;SDS011;13082;52.374;4.946;2022-12-29T08:00:26;11.40;;;2.50;;
25091;SDS011;13082;52.374;4.946;2022-12-29T08:02:51;9.10;;;2.03;;
25091;SDS011;13082;52.374;4.946;2022-12-29T08:05:17;7.27;;;2.63;;
25091;SDS011;13082;52.374;4.946;2022-12-29T08:07:43;13.63;;;3.00;;
25091;SDS011;13082;52.374;4.946;2022-12-29T08:10:09;12.20;;;2.67;;
25091;SDS011;13082;52.374;4.946;2022-12-29T08:12:37;6.97;;;2.17;;
25091;SDS011;13082;52.374;4.946;2022-12-29T08:15:03;10.03;;;2.60;;
25091;SDS011;13082;52.374;4.946;2022-12-29T08:17:30;6.70;;;2.13;;
25091;SDS011;13082;52.374;4.946;2022-12-29T08:19:55;15.30;;;3.23;;
25091;SDS011;13082;52.374;4.946;2022-12-29T08:22:21;7.60;;;2.20;;
25091;SDS011;13082;52.374;4.946;2022-12-29T08:24:47;12.80;;;2.63;;
25091;SDS011;13082;52.374;4.946;2022-12-29T08:27:13;8.57;;;2.47;;
25091;SDS011;13082;52.374;4.946;2022-12-29T08:29:38;8.80;;;1.97;;
25091;SDS011;13082;52.374;4.946;2022-12-29T08:32:04;10.03;;;2.43;;
25091;SDS011;13082;52.374;4.946;2022-12-29T08:34:30;8.60;;;2.03;;
25091;SDS011;13082;52.374;4.946;2022-12-29T08:36:56;6.70;;;2.63;;
25091;SDS011;13082;52.374;4.946;2022-12-29T08:39:22;11.53;;;3.10;;
25091;SDS011;13082;52.374;4.946;2022-12-29T08:41:47;13.73;;;3.20;;
25091;SDS011;13082;52.374;4.946;2022-12-29T08:44:13;9.03;;;2.40;;
25091;SDS011;13082;52.374;4.946;2022-12-29T08:46:39;12.50;;;2.60;;
25091;SDS011;13082;52.374;4.946;2022-12-29T08:49:04;7.13;;;2.33;;
25091;SDS011;13082;52.374;4.946;2022-12-29T08:51:30;11.73;;;2.70;;
25091;SDS011;13082;52.374;4.946;2022-12-29T08:53:55;17.00;;;3.47;;
25091;SDS011;13082;52.374;4.946;2022-12-29T08:56:21;7.30;;;2.50;;
25091;SDS011;13082;52.374;4.946;2022-12-29T08:58:48;11.40;;;2.40;;
25091;SDS011;13082;52.374;4.946;2022-12-29T09:01:14;11.00;;;2.47;;
25091;SDS011;13082;52.374;4.946;2022-12-29T09:03:40;16.07;;;2.70;;
25091;SDS011;13082;52.374;4.946;2022-12-29T09:06:06;13.40;;;2.93;;
25091;SDS011;13082;52.374;4.946;2022-12-29T09:08:31;8.93;;;2.40;;
25091;SDS011;13082;52.374;4.946;2022-12-29T09:11:14;5.27;;;2.67;;
25091;SDS011;13082;52.374;4.946;2022-12-29T09:13:44;6.07;;;2.30;;
25091;SDS011;13082;52.374;4.946;2022-12-29T09:16:11;13.17;;;3.17;;
25091;SDS011;13082;52.374;4.946;2022-12-29T09:18:37;7.43;;;2.77;;
25091;SDS011;13082;52.374;4.946;2022-12-29T09:21:04;16.00;;;2.97;;
25091;SDS011;13082;52.374;4.946;2022-12-29T09:23:31;9.53;;;2.43;;
25091;SDS011;13082;52.374;4.946;2022-12-29T09:25:57;12.10;;;2.60;;
25091;SDS011;13082;52.374;4.946;2022-12-29T09:28:23;10.37;;;2.20;;
25091;SDS011;13082;52.374;4.946;2022-12-29T09:30:49;6.10;;;2.10;;
25091;SDS011;13082;52.374;4.946;2022-12-29T09:33:16;4.90;;;2.17;;
25091;SDS011;13082;52.374;4.946;2022-12-29T09:35:45;10.67;;;3.20;;
25091;SDS011;13082;52.374;4.946;2022-12-29T09:38:15;6.50;;;2.63;;
25091;SDS011;13082;52.374;4.946;2022-12-29T09:40:43;11.33;;;2.50;;
25091;SDS011;13082;52.374;4.946;2022-12-29T09:48:40;8.67;;;3.23;;
25091;SDS011;13082;52.374;4.946;2022-12-29T09:51:12;13.07;;;3.43;;
25091;SDS011;13082;52.374;4.946;2022-12-29T09:53:43;11.47;;;3.70;;
25091;SDS011;13082;52.374;4.946;2022-12-29T09:56:16;11.87;;;2.70;;
25091;SDS011;13082;52.374;4.946;2022-12-29T09:58:50;16.70;;;3.47;;
25091;SDS011;13082;52.374;4.946;2022-12-29T10:01:26;11.73;;;3.00;;
25091;SDS011;13082;52.374;4.946;2022-12-29T10:03:57;17.13;;;3.63;;
25091;SDS011;13082;52.374;4.946;2022-12-29T10:12:22;17.70;;;3.70;;
25091;SDS011;13082;52.374;4.946;2022-12-29T10:17:47;16.93;;;3.60;;
25091;SDS011;13082;52.374;4.946;2022-12-29T10:25:47;15.13;;;3.10;;
25091;SDS011;13082;52.374;4.946;2022-12-29T10:28:20;14.50;;;3.27;;
25091;SDS011;13082;52.374;4.946;2022-12-29T10:30:48;16.77;;;3.17;;
25091;SDS011;13082;52.374;4.946;2022-12-29T10:33:17;20.83;;;4.13;;
25091;SDS011;13082;52.374;4.946;2022-12-29T10:35:45;23.20;;;5.47;;
25091;SDS011;13082;52.374;4.946;2022-12-29T10:38:17;14.83;;;3.97;;
25091;SDS011;13082;52.374;4.946;2022-12-29T10:44:09;15.77;;;4.33;;
25091;SDS011;13082;52.374;4.946;2022-12-29T10:46:38;18.10;;;4.00;;
25091;SDS011;13082;52.374;4.946;2022-12-29T10:49:04;17.67;;;4.07;;
25091;SDS011;13082;52.374;4.946;2022-12-29T10:51:36;23.67;;;3.60;;
25091;SDS011;13082;52.374;4.946;2022-12-29T10:54:10;15.50;;;3.40;;
25091;SDS011;13082;52.374;4.946;2022-12-29T10:57:01;13.63;;;4.30;;
25091;SDS011;13082;52.374;4.946;2022-12-29T10:59:35;17.30;;;4.00;;
25091;SDS011;13082;52.374;4.946;2022-12-29T11:07:30;15.10;;;3.20;;
25091;SDS011;13082;52.374;4.946;2022-12-29T11:10:15;13.33;;;2.87;;
25091;SDS011;13082;52.374;4.946;2022-12-29T11:12:54;16.47;;;3.03;;
25091;SDS011;13082;52.374;4.946;2022-12-29T11:15:23;17.97;;;3.70;;
25091;SDS011;13082;52.374;4.946;2022-12-29T11:17:50;13.03;;;2.90;;
25091;SDS011;13082;52.374;4.946;2022-12-29T11:20:27;14.93;;;3.73;;
25091;SDS011;13082;52.374;4.946;2022-12-29T11:22:53;9.80;;;2.77;;
25091;SDS011;13082;52.374;4.946;2022-12-29T11:25:19;9.43;;;3.10;;
25091;SDS011;13082;52.374;4.946;2022-12-29T11:27:58;17.77;;;4.27;;
25091;SDS011;13082;52.374;4.946;2022-12-29T11:30:28;12.23;;;3.00;;
25091;SDS011;13082;52.374;4.946;2022-12-29T11:32:56;12.57;;;2.80;;
25091;SDS011;13082;52.374;4.946;2022-12-29T11:35:56;17.90;;;3.97;;
25091;SDS011;13082;52.374;4.946;2022-12-29T11:38:22;17.57;;;3.67;;
25091;SDS011;13082;52.374;4.946;2022-12-29T11:40:53;17.20;;;3.53;;
25091;SDS011;13082;52.374;4.946;2022-12-29T11:43:31;26.97;;;3.67;;
25091;SDS011;13082;52.374;4.946;2022-12-29T11:46:02;13.73;;;3.20;;
25091;SDS011;13082;52.374;4.946;2022-12-29T11:48:33;12.47;;;3.27;;
25091;SDS011;13082;52.374;4.946;2022-12-29T11:51:06;12.70;;;2.97;;
25091;SDS011;13082;52.374;4.946;2022-12-29T11:53:43;11.83;;;2.30;;
25091;SDS011;13082;52.374;4.946;2022-12-29T11:56:19;16.97;;;2.73;;
25091;SDS011;13082;52.374;4.946;2022-12-29T11:58:47;12.57;;;2.57;;
25091;SDS011;13082;52.374;4.946;2022-12-29T12:01:19;10.43;;;2.53;;
25091;SDS011;13082;52.374;4.946;2022-12-29T12:04:10;11.17;;;2.73;;
25091;SDS011;13082;52.374;4.946;2022-12-29T12:06:43;9.23;;;2.47;;
25091;SDS011;13082;52.374;4.946;2022-12-29T12:09:16;10.40;;;2.97;;
25091;SDS011;13082;52.374;4.946;2022-12-29T12:11:48;7.50;;;2.47;;
25091;SDS011;13082;52.374;4.946;2022-12-29T12:14:30;9.40;;;2.57;;
25091;SDS011;13082;52.374;4.946;2022-12-29T12:17:09;15.17;;;2.43;;
25091;SDS011;13082;52.374;4.946;2022-12-29T12:19:59;13.40;;;2.57;;
25091;SDS011;13082;52.374;4.946;2022-12-29T12:22:43;10.67;;;2.43;;
25091;SDS011;13082;52.374;4.946;2022-12-29T12:25:17;15.87;;;2.83;;
25091;SDS011;13082;52.374;4.946;2022-12-29T12:30:41;5.53;;;1.63;;
25091;SDS011;13082;52.374;4.946;2022-12-29T12:33:16;7.93;;;2.00;;
25091;SDS011;13082;52.374;4.946;2022-12-29T12:44:42;6.67;;;1.67;;
25091;SDS011;13082;52.374;4.946;2022-12-29T12:47:20;6.80;;;1.50;;
25091;SDS011;13082;52.374;4.946;2022-12-29T12:50:00;8.63;;;2.43;;
25091;SDS011;13082;52.374;4.946;2022-12-29T12:52:46;11.20;;;2.30;;
25091;SDS011;13082;52.374;4.946;2022-12-29T13:03:44;5.20;;;1.70;;
25091;SDS011;13082;52.374;4.946;2022-12-29T13:31:03;7.63;;;2.27;;
25091;SDS011;13082;52.374;4.946;2022-12-29T13:36:24;8.40;;;2.60;;
25091;SDS011;13082;52.374;4.946;2022-12-29T13:39:02;9.57;;;2.30;;
25091;SDS011;13082;52.374;4.946;2022-12-29T13:41:39;7.77;;;2.03;;
25091;SDS011;13082;52.374;4.946;2022-12-29T13:44:14;7.70;;;2.27;;
25091;SDS011;13082;52.374;4.946;2022-12-29T13:46:45;9.10;;;1.97;;
25091;SDS011;13082;52.374;4.946;2022-12-29T13:49:13;6.77;;;1.63;;
25091;SDS011;13082;52.374;4.946;2022-12-29T13:51:48;7.20;;;1.80;;
25091;SDS011;13082;52.374;4.946;2022-12-29T14:00:14;6.10;;;1.63;;
25091;SDS011;13082;52.374;4.946;2022-12-29T14:07:43;5.77;;;1.97;;
25091;SDS011;13082;52.374;4.946;2022-12-29T14:13:09;9.00;;;2.43;;
25091;SDS011;13082;52.374;4.946;2022-12-29T14:15:38;4.03;;;1.87;;
25091;SDS011;13082;52.374;4.946;2022-12-29T14:20:52;5.13;;;2.23;;
25091;SDS011;13082;52.374;4.946;2022-12-29T14:23:30;5.80;;;1.80;;
25091;SDS011;13082;52.374;4.946;2022-12-29T14:28:34;4.00;;;1.90;;
25091;SDS011;13082;52.374;4.946;2022-12-29T14:33:41;10.17;;;3.20;;
25091;SDS011;13082;52.374;4.946;2022-12-29T14:36:33;10.67;;;3.27;;
25091;SDS011;13082;52.374;4.946;2022-12-29T14:44:53;9.03;;;2.50;;
25091;SDS011;13082;52.374;4.946;2022-12-29T14:49:55;13.37;;;2.47;;
25091;SDS011;13082;52.374;4.946;2022-12-29T14:52:32;16.13;;;2.47;;
25091;SDS011;13082;52.374;4.946;2022-12-29T14:57:41;6.67;;;2.17;;
25091;SDS011;13082;52.374;4.946;2022-12-29T15:00:23;17.77;;;2.67;;
25091;SDS011;13082;52.374;4.946;2022-12-29T15:03:01;8.97;;;1.93;;
25091;SDS011;13082;52.374;4.946;2022-12-29T15:08:17;6.03;;;2.00;;
25091;SDS011;13082;52.374;4.946;2022-12-29T15:10:55;7.40;;;1.93;;
25091;SDS011;13082;52.374;4.946;2022-12-29T15:13:38;7.13;;;2.10;;
25091;SDS011;13082;52.374;4.946;2022-12-29T15:16:20;6.87;;;2.53;;
25091;SDS011;13082;52.374;4.946;2022-12-29T15:19:04;6.20;;;1.73;;
25091;SDS011;13082;52.374;4.946;2022-12-29T15:21:47;7.77;;;2.33;;
25091;SDS011;13082;52.374;4.946;2022-12-29T15:24:13;8.50;;;2.17;;
25091;SDS011;13082;52.374;4.946;2022-12-29T15:26:40;8.43;;;2.30;;
25091;SDS011;13082;52.374;4.946;2022-12-29T15:29:28;12.63;;;2.50;;
25091;SDS011;13082;52.374;4.946;2022-12-29T15:32:10;9.67;;;3.77;;
25091;SDS011;13082;52.374;4.946;2022-12-29T15:34:40;16.93;;;2.07;;
25091;SDS011;13082;52.374;4.946;2022-12-29T15:37:07;10.97;;;3.03;;
25091;SDS011;13082;52.374;4.946;2022-12-29T15:39:33;7.83;;;2.40;;
25091;SDS011;13082;52.374;4.946;2022-12-29T15:42:03;9.57;;;2.47;;
25091;SDS011;13082;52.374;4.946;2022-12-29T15:44:41;9.23;;;2.87;;
25091;SDS011;13082;52.374;4.946;2022-12-29T15:47:14;9.03;;;2.33;;
25091;SDS011;13082;52.374;4.946;2022-12-29T15:49:43;13.93;;;2.60;;
25091;SDS011;13082;52.374;4.946;2022-12-29T15:52:13;8.03;;;2.20;;
25091;SDS011;13082;52.374;4.946;2022-12-29T15:54:44;9.23;;;2.93;;
25091;SDS011;13082;52.374;4.946;2022-12-29T15:57:16;10.87;;;3.17;;
25091;SDS011;13082;52.374;4.946;2022-12-29T15:59:46;3.43;;;1.67;;
25091;SDS011;13082;52.374;4.946;2022-12-29T16:02:13;10.63;;;2.10;;
25091;SDS011;13082;52.374;4.946;2022-12-29T16:04:39;12.03;;;2.67;;
25091;SDS011;13082;52.374;4.946;2022-12-29T16:07:21;14.27;;;3.03;;
25091;SDS011;13082;52.374;4.946;2022-12-29T16:09:56;10.77;;;2.10;;
25091;SDS011;13082;52.374;4.946;2022-12-29T16:12:26;13.63;;;2.47;;
25091;SDS011;13082;52.374;4.946;2022-12-29T16:14:57;10.60;;;2.60;;
25091;SDS011;13082;52.374;4.946;2022-12-29T16:17:26;10.60;;;2.30;;
25091;SDS011;13082;52.374;4.946;2022-12-29T16:19:55;13.23;;;2.67;;
25091;SDS011;13082;52.374;4.946;2022-12-29T16:22:30;13.47;;;2.33;;
25091;SDS011;13082;52.374;4.946;2022-12-29T16:25:13;9.67;;;2.47;;
25091;SDS011;13082;52.374;4.946;2022-12-29T16:27:45;12.47;;;2.97;;
25091;SDS011;13082;52.374;4.946;2022-12-29T16:30:22;25.43;;;3.90;;
25091;SDS011;13082;52.374;4.946;2022-12-29T16:32:51;10.00;;;2.93;;
25091;SDS011;13082;52.374;4.946;2022-12-29T16:35:23;11.10;;;2.40;;
25091;SDS011;13082;52.374;4.946;2022-12-29T16:40:49;11.60;;;2.90;;
25091;SDS011;13082;52.374;4.946;2022-12-29T16:48:27;7.67;;;2.17;;
25091;SDS011;13082;52.374;4.946;2022-12-29T16:51:06;14.83;;;2.97;;
25091;SDS011;13082;52.374;4.946;2022-12-29T16:53:39;12.57;;;2.60;;
25091;SDS011;13082;52.374;4.946;2022-12-29T16:56:13;7.93;;;1.93;;
25091;SDS011;13082;52.374;4.946;2022-12-29T16:58:44;7.70;;;2.67;;
25091;SDS011;13082;52.374;4.946;2022-12-29T17:01:12;14.03;;;2.53;;
25091;SDS011;13082;52.374;4.946;2022-12-29T17:03:45;10.03;;;3.00;;
25091;SDS011;13082;52.374;4.946;2022-12-29T17:06:20;9.00;;;2.33;;
25091;SDS011;13082;52.374;4.946;2022-12-29T17:08:47;10.90;;;2.67;;
25091;SDS011;13082;52.374;4.946;2022-12-29T17:11:19;7.37;;;2.30;;
25091;SDS011;13082;52.374;4.946;2022-12-29T17:16:55;11.20;;;2.90;;
25091;SDS011;13082;52.374;4.946;2022-12-29T17:19:23;8.13;;;2.07;;
25091;SDS011;13082;52.374;4.946;2022-12-29T17:21:54;8.87;;;2.30;;
25091;SDS011;13082;52.374;4.946;2022-12-29T17:24:20;11.13;;;3.37;;
25091;SDS011;13082;52.374;4.946;2022-12-29T17:26:50;10.33;;;2.30;;
25091;SDS011;13082;52.374;4.946;2022-12-29T17:29:19;10.10;;;2.57;;
25091;SDS011;13082;52.374;4.946;2022-12-29T17:31:53;13.47;;;3.33;;
25091;SDS011;13082;52.374;4.946;2022-12-29T17:34:19;12.50;;;2.90;;
25091;SDS011;13082;52.374;4.946;2022-12-29T17:36:45;14.13;;;4.30;;
25091;SDS011;13082;52.374;4.946;2022-12-29T17:39:11;14.53;;;2.80;;
25091;SDS011;13082;52.374;4.946;2022-12-29T17:41:36;9.90;;;2.87;;